ADDS METAR Data INFO
IDs: Format: Raw Decoded Include TAF

Data at: 1605 UTC 12 Dec 2017

KPRC 121553Z 19003KT 10SM CLR 03/M18 A3040 RMK AO2 SLP287 T00281178
KPRC 121453Z 20006KT 8SM CLR M02/M19 A3040 RMK AO2 SLP292 T10221194 53002
KPRC 121353Z 19004KT 10SM CLR M04/M19 A3039 RMK AO2 SLP291 T10391189
KPRC 121253Z 19006KT 10SM CLR M03/M19 A3039 RMK AO2 SLP284 T10281194
KPRC 121153Z AUTO 19007KT 10SM CLR M03/M19 A3039 RMK AO2 SLP275 T10281189 10006 21039 58003
KPRC 121053Z AUTO 19006KT 10SM CLR M03/M19 A3040 RMK AO2 SLP274 T10281189
KPRC 120953Z AUTO 19005KT 10SM CLR M02/M18 A3040 RMK AO2 SLP273 T10221183
KPRC 120853Z AUTO 18005KT 10SM CLR M02/M20 A3040 RMK AO2 SLP276 T10221200 51000
KPRC 120753Z AUTO 20006KT 10SM CLR 00/M21 A3040 RMK AO2 SLP273 T00001206
KPRC 120653Z AUTO 19009KT 10SM CLR 00/M21 A3040 RMK AO2 SLP277 T00001206 401391039
KPRC 120553Z AUTO 20007KT 10SM CLR 00/M20 A3040 RMK AO2 SLP282 T00001200 10111 21006 53008
KPRC 120453Z AUTO 17005KT 10SM CLR 01/M19 A3039 RMK AO2 SLP286 T00061194
KPRC 120353Z 18005KT 10SM CLR 02/M20 A3038 RMK AO2 SLP284 T00171200
KPRC 120253Z 20004KT 10SM CLR 03/M19 A3037 RMK AO2 SLP286 T00281189 51006
KPRC 120153Z 19006KT 10SM CLR 05/M19 A3037 RMK AO2 SLP282 T00501189
KPRC 120053Z 20003KT 10SM CLR 06/M17 A3035 RMK AO2 SLP274 T00611172
KPRC 112353Z 00000KT 9SM CLR 11/M19 A3035 RMK AO2 SLP261 T01111194 10139 20061 53001
KPRC 112253Z 36004KT 10SM CLR 13/M21 A3034 RMK AO2 SLP256 T01281211
KPRC 112153Z 34005KT 10SM CLR 13/M21 A3034 RMK AO2 SLP254 T01331211
KPRC 112053Z 33003KT 10SM CLR 12/M21 A3035 RMK AO2 SLP257 T01221206 56021
KPRC 111953Z 34006KT 10SM CLR 11/M21 A3037 RMK AO2 SLP259 T01111206
KPRC 111853Z VRB04KT 10SM CLR 09/M19 A3040 RMK AO2 SLP268 T00941194
KPRC 111753Z 35004KT 10SM CLR 07/M18 A3042 RMK AO2 SLP287 T00671183 10067 21039 51003
KPRC 111653Z 20003KT 10SM CLR 03/M16 A3042 RMK AO2 SLP291 T00281161
KPRC 111553Z 21003KT 8SM CLR 00/M18 A3042 RMK AO2 SLP296 T00001183
KPRC 111453Z 18005KT 9SM CLR M03/M18 A3041 RMK AO2 SLP292 T10281178 53006
KPRC 111353Z 20003KT 10SM CLR M04/M19 A3040 RMK AO2 SLP288 T10391189
KPRC 111253Z 19004KT 10SM CLR M03/M19 A3039 RMK AO2 SLP284 T10331189
KPRC 111153Z AUTO 19007KT 10SM CLR M02/M19 A3039 RMK AO2 SLP268 T10221189 10039 21033 58001
KPRC 111053Z AUTO 22004KT 10SM CLR M03/M19 A3040 RMK AO2 SLP269 T10281189
KPRC 110953Z AUTO 22003KT 10SM CLR M02/M18 A3040 RMK AO2 SLP266 T10221183
KPRC 110853Z AUTO 24004KT 10SM CLR M02/M18 A3039 RMK AO2 SLP265 T10221183 58001
KPRC 110753Z AUTO 00000KT 10SM CLR 01/M20 A3039 RMK AO2 SLP263 T00111200
KPRC 110653Z AUTO 30003KT 10SM CLR 04/M21 A3040 RMK AO2 SLP264 T00391211 401671044
KPRC 110553Z AUTO 00000KT 10SM CLR 01/M19 A3040 RMK AO2 SLP273 T00061189 10133 20006 51010
KPRC 110453Z AUTO 18006KT 10SM CLR 02/M17 A3039 RMK AO2 SLP274 T00221167